createdAt,value
2022-08-03T00:00:21.292Z,2.08
2022-08-03T00:04:37.207Z,2.20
2022-08-03T00:08:53.192Z,2.10
2022-08-03T00:13:09.270Z,2.30
2022-08-03T00:17:25.193Z,2.17
2022-08-03T00:21:41.644Z,2.00
2022-08-03T00:25:57.855Z,1.90
2022-08-03T00:30:13.873Z,2.20
2022-08-03T00:34:50.890Z,2.42
2022-08-03T00:39:09.022Z,1.98
2022-08-03T00:43:29.499Z,2.40
2022-08-03T00:47:46.382Z,2.53
2022-08-03T00:52:09.516Z,2.40
2022-08-03T00:56:26.719Z,2.30
2022-08-03T01:00:42.653Z,2.10
2022-08-03T01:04:58.746Z,2.50
2022-08-03T01:09:29.114Z,2.40
2022-08-03T01:14:17.877Z,2.50
2022-08-03T01:18:39.068Z,2.60
2022-08-03T01:23:28.888Z,2.25
2022-08-03T01:28:27.000Z,2.42
2022-08-03T01:33:01.669Z,2.08
2022-08-03T01:37:22.579Z,2.47
2022-08-03T01:42:07.631Z,2.30
2022-08-03T01:46:25.383Z,2.65
2022-08-03T01:50:42.661Z,2.70
2022-08-03T01:54:59.019Z,2.62
2022-08-03T01:59:16.691Z,2.60
2022-08-03T02:03:36.736Z,2.35
2022-08-03T02:07:53.101Z,2.42
2022-08-03T02:12:14.155Z,2.22
2022-08-03T02:16:31.332Z,2.78
2022-08-03T02:20:47.350Z,3.17
2022-08-03T02:25:03.476Z,2.90
2022-08-03T02:29:39.947Z,3.30
2022-08-03T02:34:06.783Z,3.10
2022-08-03T02:38:28.296Z,3.47
2022-08-03T02:42:45.548Z,3.67
2022-08-03T02:47:07.649Z,2.97
2022-08-03T02:51:24.018Z,3.55
2022-08-03T02:55:43.114Z,3.00
2022-08-03T03:00:02.143Z,3.53
2022-08-03T03:04:18.944Z,3.08
2022-08-03T03:08:37.139Z,3.50
2022-08-03T03:12:58.159Z,3.28
2022-08-03T03:17:15.472Z,3.33
2022-08-03T03:21:31.945Z,3.30
2022-08-03T03:25:48.665Z,3.60
2022-08-03T03:30:05.375Z,3.62
2022-08-03T03:34:21.589Z,3.28
2022-08-03T03:38:39.090Z,4.10
2022-08-03T03:42:55.068Z,3.55
2022-08-03T03:47:11.146Z,3.95
2022-08-03T03:51:29.303Z,3.90
2022-08-03T03:55:59.418Z,3.75
2022-08-03T04:00:19.689Z,3.72
2022-08-03T04:04:55.303Z,3.20
2022-08-03T04:09:29.848Z,3.62
2022-08-03T04:13:54.996Z,3.40
2022-08-03T04:18:13.880Z,3.05
2022-08-03T04:22:32.696Z,3.10
2022-08-03T04:26:52.604Z,3.10
2022-08-03T04:31:09.065Z,2.80
2022-08-03T04:35:59.823Z,3.15
2022-08-03T04:40:13.651Z,2.97
2022-08-03T04:44:31.396Z,3.28
2022-08-03T04:48:47.658Z,3.08
2022-08-03T04:53:05.328Z,3.35
2022-08-03T04:57:22.073Z,3.55
2022-08-03T05:01:42.237Z,3.53
2022-08-03T05:06:09.428Z,3.55
2022-08-03T05:10:27.843Z,4.25
2022-08-03T05:14:43.977Z,4.25
2022-08-03T05:19:00.096Z,4.03
2022-08-03T05:23:16.270Z,3.85
2022-08-03T05:27:32.260Z,4.12
2022-08-03T05:31:48.360Z,3.90
2022-08-03T05:36:04.770Z,3.90
2022-08-03T05:40:20.803Z,3.72
2022-08-03T05:44:38.882Z,4.18
2022-08-03T05:48:54.860Z,3.90
2022-08-03T05:53:10.995Z,4.75
2022-08-03T05:57:27.175Z,3.47
2022-08-03T06:01:43.136Z,3.78
2022-08-03T06:06:00.377Z,3.37
2022-08-03T06:10:36.725Z,3.67
2022-08-03T06:14:52.822Z,3.47
2022-08-03T06:19:08.831Z,4.35
2022-08-03T06:23:53.374Z,4.40
2022-08-03T06:28:00.802Z,4.25
2022-08-03T06:32:17.246Z,4.18
2022-08-03T06:36:33.753Z,3.80
2022-08-03T06:40:50.964Z,4.43
2022-08-03T06:45:09.164Z,3.87
2022-08-03T06:49:25.414Z,3.90
2022-08-03T06:53:41.505Z,3.95
2022-08-03T06:57:59.968Z,4.05
2022-08-03T07:02:19.888Z,4.20
2022-08-03T07:06:37.531Z,4.15
2022-08-03T07:10:53.513Z,3.97
2022-08-03T07:15:20.099Z,3.90
2022-08-03T07:19:37.214Z,4.30
2022-08-03T07:23:53.254Z,4.43
2022-08-03T07:28:09.213Z,4.45
2022-08-03T07:32:26.174Z,4.20
2022-08-03T07:36:42.167Z,4.78
2022-08-03T07:40:58.157Z,4.35
2022-08-03T07:45:16.612Z,4.57
2022-08-03T07:49:32.964Z,4.53
2022-08-03T07:53:48.956Z,5.20
2022-08-03T07:58:12.690Z,4.65
2022-08-03T08:02:28.705Z,4.90
2022-08-03T08:06:44.880Z,4.57
2022-08-03T08:11:01.021Z,4.37
2022-08-03T08:15:17.176Z,5.20
2022-08-03T08:19:33.173Z,4.65
2022-08-03T08:23:57.894Z,4.22
2022-08-03T08:28:30.387Z,4.50
2022-08-03T08:32:50.205Z,3.97
2022-08-03T08:37:06.212Z,4.62
2022-08-03T08:41:22.244Z,4.40
2022-08-03T08:45:38.645Z,4.80
2022-08-03T08:50:09.183Z,4.93
2022-08-03T08:54:27.076Z,4.32
2022-08-03T08:58:54.788Z,4.53
2022-08-03T09:03:11.688Z,4.07
2022-08-03T09:07:38.515Z,4.15
2022-08-03T09:12:01.069Z,3.97
2022-08-03T09:16:24.900Z,3.65
2022-08-03T09:20:41.007Z,3.42
2022-08-03T09:25:22.771Z,3.70
2022-08-03T09:29:34.976Z,3.85
2022-08-03T09:33:51.072Z,3.30
2022-08-03T09:38:28.648Z,3.80
2022-08-03T09:42:57.400Z,3.85
2022-08-03T09:47:15.923Z,3.92
2022-08-03T09:51:32.788Z,3.92
2022-08-03T09:56:35.119Z,3.97
2022-08-03T10:01:07.711Z,3.58
2022-08-03T10:05:44.662Z,3.72
2022-08-03T10:10:31.715Z,3.65
2022-08-03T10:14:39.762Z,3.62
2022-08-03T10:18:57.770Z,4.05
2022-08-03T10:23:15.088Z,3.90
2022-08-03T10:27:40.486Z,4.45
2022-08-03T10:31:59.064Z,4.32
2022-08-03T10:36:16.571Z,3.50
2022-08-03T10:40:48.176Z,4.05
2022-08-03T10:49:33.820Z,3.80
2022-08-03T10:53:54.869Z,3.55
2022-08-03T10:58:11.675Z,3.30
2022-08-03T11:03:06.860Z,3.45
2022-08-03T11:07:24.194Z,3.45
2022-08-03T11:11:45.217Z,3.17
2022-08-03T11:16:06.661Z,3.17
2022-08-03T11:20:47.319Z,3.37
2022-08-03T11:25:04.629Z,3.55
2022-08-03T11:29:32.649Z,3.45
2022-08-03T11:34:11.361Z,3.58
2022-08-03T11:38:27.349Z,2.92
2022-08-03T11:42:50.477Z,3.47
2022-08-03T11:47:06.527Z,3.25
2022-08-03T11:51:28.332Z,3.15
2022-08-03T11:55:49.098Z,2.80
2022-08-03T12:00:21.245Z,3.35
2022-08-03T12:05:01.438Z,3.10
2022-08-03T12:09:17.563Z,3.05
2022-08-03T12:14:36.671Z,3.10
2022-08-03T12:18:24.544Z,2.90
2022-08-03T12:22:41.544Z,2.60
2022-08-03T12:27:00.110Z,2.92
2022-08-03T12:31:17.549Z,2.90
2022-08-03T12:35:33.556Z,2.80
2022-08-03T12:40:02.566Z,2.72
2022-08-03T12:44:31.591Z,3.03
2022-08-03T12:49:01.748Z,2.62
2022-08-03T12:53:30.819Z,2.92
2022-08-03T12:57:47.130Z,2.58
2022-08-03T13:02:09.456Z,2.55
2022-08-03T13:06:26.569Z,2.53
2022-08-03T13:10:44.081Z,3.03
2022-08-03T13:15:01.160Z,2.67
2022-08-03T13:19:17.271Z,2.55
2022-08-03T13:23:33.379Z,2.72
2022-08-03T13:28:04.478Z,2.90
2022-08-03T13:32:23.282Z,2.47
2022-08-03T13:37:07.430Z,2.78
2022-08-03T13:41:15.541Z,3.10
2022-08-03T13:45:32.193Z,2.65
2022-08-03T13:49:54.327Z,2.90
2022-08-03T13:54:19.834Z,2.80
2022-08-03T13:58:35.807Z,2.78
2022-08-03T14:02:52.236Z,2.92
2022-08-03T14:07:08.289Z,2.47
2022-08-03T14:11:24.253Z,2.40
2022-08-03T14:16:00.295Z,2.90
2022-08-03T14:20:38.020Z,2.55
2022-08-03T14:24:54.067Z,2.62
2022-08-03T14:29:10.082Z,2.50
2022-08-03T14:33:26.350Z,2.70
2022-08-03T14:37:42.405Z,2.67
2022-08-03T14:41:58.346Z,2.83
2022-08-03T14:46:14.518Z,2.55
2022-08-03T14:50:41.628Z,2.33
2022-08-03T14:55:01.306Z,2.83
2022-08-03T14:59:17.398Z,2.50
2022-08-03T15:03:33.434Z,2.33
2022-08-03T15:07:49.518Z,2.72
2022-08-03T15:12:06.764Z,2.40
2022-08-03T15:16:26.594Z,2.40
2022-08-03T15:20:47.242Z,2.45
2022-08-03T15:26:31.582Z,2.65
2022-08-03T15:30:08.893Z,2.42
2022-08-03T15:34:16.723Z,2.58
2022-08-03T15:38:32.784Z,2.62
2022-08-03T15:42:48.792Z,2.47
2022-08-03T15:47:04.828Z,2.12
2022-08-03T15:51:20.918Z,2.30
2022-08-03T15:55:36.890Z,2.40
2022-08-03T15:59:53.105Z,2.50
2022-08-03T16:04:09.555Z,2.05
2022-08-03T16:08:25.850Z,2.50
2022-08-03T16:12:42.344Z,2.28
2022-08-03T16:17:00.641Z,2.20
2022-08-03T16:21:19.392Z,2.30
2022-08-03T16:25:36.238Z,2.22
2022-08-03T16:29:52.448Z,2.40
2022-08-03T16:34:08.404Z,2.28
2022-08-03T16:38:24.675Z,2.37
2022-08-03T16:42:40.829Z,2.15
2022-08-03T16:46:57.060Z,2.30
2022-08-03T16:51:14.899Z,2.33
2022-08-03T16:55:49.151Z,2.45
2022-08-03T17:00:08.188Z,2.70
2022-08-03T17:04:24.614Z,2.10
2022-08-03T17:08:40.639Z,2.47
2022-08-03T17:12:56.689Z,2.53
2022-08-03T17:17:21.163Z,2.33
2022-08-03T17:21:40.079Z,2.30
2022-08-03T17:26:04.230Z,2.28
2022-08-03T17:30:21.400Z,2.45
2022-08-03T17:34:44.467Z,2.35
2022-08-03T17:39:00.792Z,2.42
2022-08-03T17:44:13.018Z,2.62
2022-08-03T17:47:57.542Z,2.95
2022-08-03T17:52:28.663Z,2.40
2022-08-03T17:56:59.937Z,1.95
2022-08-03T18:02:35.688Z,2.15
2022-08-03T18:06:56.291Z,2.80
2022-08-03T18:11:16.479Z,3.62
2022-08-03T18:15:42.701Z,2.50
2022-08-03T18:20:03.428Z,1.60
2022-08-03T18:24:25.823Z,1.60
2022-08-03T18:28:44.236Z,1.83
2022-08-03T18:34:16.561Z,2.25
2022-08-03T18:37:52.073Z,3.45
2022-08-03T18:42:08.551Z,2.65
2022-08-03T18:46:50.741Z,2.22
2022-08-03T18:51:28.578Z,2.70
2022-08-03T18:56:11.154Z,2.90
2022-08-03T19:00:34.185Z,1.95
2022-08-03T19:05:09.882Z,8.15
2022-08-03T19:09:36.199Z,4.95
2022-08-03T19:13:59.358Z,2.90
2022-08-03T19:18:20.774Z,2.58
2022-08-03T19:22:39.904Z,2.22
2022-08-03T19:27:02.649Z,2.20
2022-08-03T19:31:18.738Z,2.87
2022-08-03T19:35:54.600Z,2.15
2022-08-03T19:40:12.882Z,2.25
2022-08-03T19:44:33.255Z,2.30
2022-08-03T19:49:15.863Z,2.15
2022-08-03T19:53:37.233Z,2.50
2022-08-03T19:58:02.499Z,2.37
2022-08-03T20:02:25.718Z,2.28
2022-08-03T20:06:44.109Z,2.25
2022-08-03T20:11:04.285Z,2.25
2022-08-03T20:15:31.156Z,1.83
2022-08-03T20:19:52.761Z,1.95
2022-08-03T20:24:23.302Z,2.17
2022-08-03T20:28:50.644Z,2.00
2022-08-03T20:33:07.713Z,1.90
2022-08-03T20:37:23.755Z,1.70
2022-08-03T20:41:41.149Z,1.73
2022-08-03T20:45:59.098Z,1.90
2022-08-03T20:50:33.346Z,1.90
2022-08-03T20:54:51.479Z,1.70
2022-08-03T20:59:15.204Z,1.80
2022-08-03T21:03:40.755Z,1.67
2022-08-03T21:08:07.471Z,1.75
2022-08-03T21:12:35.054Z,1.80
2022-08-03T21:16:54.425Z,1.83
2022-08-03T21:21:13.982Z,2.05
2022-08-03T21:25:34.397Z,1.80
2022-08-03T21:29:53.267Z,2.15
2022-08-03T21:34:10.102Z,1.80
2022-08-03T21:38:29.828Z,1.87
2022-08-03T21:42:46.383Z,1.55
2022-08-03T21:47:02.453Z,1.62
2022-08-03T21:51:20.072Z,1.85
2022-08-03T21:55:38.120Z,2.22
2022-08-03T21:59:56.724Z,1.83
2022-08-03T22:04:45.836Z,1.65
2022-08-03T22:08:51.795Z,1.58
2022-08-03T22:13:07.887Z,2.00
2022-08-03T22:17:55.937Z,2.10
2022-08-03T22:22:06.186Z,2.60
2022-08-03T22:26:32.174Z,1.87
2022-08-03T22:30:51.908Z,1.83
2022-08-03T22:35:11.246Z,1.67
2022-08-03T22:39:31.319Z,1.73
2022-08-03T22:43:47.759Z,1.52
2022-08-03T22:48:05.870Z,1.98
2022-08-03T22:52:23.666Z,1.87
2022-08-03T22:56:40.314Z,2.00
2022-08-03T23:01:03.216Z,1.73
2022-08-03T23:06:00.548Z,1.37
2022-08-03T23:10:14.018Z,1.42
2022-08-03T23:14:33.222Z,1.83
2022-08-03T23:18:50.995Z,1.70
2022-08-03T23:23:07.031Z,1.55
2022-08-03T23:27:24.757Z,1.70
2022-08-03T23:31:43.050Z,1.87
2022-08-03T23:36:28.420Z,1.50
2022-08-03T23:40:41.728Z,1.70
2022-08-03T23:45:05.406Z,1.75
2022-08-03T23:49:22.171Z,1.85
2022-08-03T23:54:00.144Z,2.00
2022-08-03T23:58:48.497Z,2.10
